sensor_id;sensor_type;location;lat;lon;timestamp;P1;durP1;ratioP1;P2;durP2;ratioP2
58338;SDS011;48278;52.704;6.536;2022-09-09T00:01:41;23.13;;;10.50;;
58338;SDS011;48278;52.704;6.536;2022-09-09T00:07:10;32.00;;;10.40;;
58338;SDS011;48278;52.704;6.536;2022-09-09T00:09:45;26.60;;;9.90;;
58338;SDS011;48278;52.704;6.536;2022-09-09T00:12:25;26.20;;;10.32;;
58338;SDS011;48278;52.704;6.536;2022-09-09T00:15:13;27.60;;;10.80;;
58338;SDS011;48278;52.704;6.536;2022-09-09T00:20:32;27.05;;;9.55;;
58338;SDS011;48278;52.704;6.536;2022-09-09T00:23:11;28.55;;;10.02;;
58338;SDS011;48278;52.704;6.536;2022-09-09T00:28:33;28.95;;;9.88;;
58338;SDS011;48278;52.704;6.536;2022-09-09T00:31:08;21.95;;;8.90;;
58338;SDS011;48278;52.704;6.536;2022-09-09T00:33:38;23.98;;;10.10;;
58338;SDS011;48278;52.704;6.536;2022-09-09T00:36:09;27.45;;;9.27;;
58338;SDS011;48278;52.704;6.536;2022-09-09T00:38:45;20.38;;;8.63;;
58338;SDS011;48278;52.704;6.536;2022-09-09T00:49:49;23.58;;;8.45;;
58338;SDS011;48278;52.704;6.536;2022-09-09T00:52:27;24.35;;;8.05;;
58338;SDS011;48278;52.704;6.536;2022-09-09T00:55:19;23.33;;;8.68;;
58338;SDS011;48278;52.704;6.536;2022-09-09T00:57:47;22.90;;;8.57;;
58338;SDS011;48278;52.704;6.536;2022-09-09T01:02:52;32.85;;;9.70;;
58338;SDS011;48278;52.704;6.536;2022-09-09T01:08:02;29.48;;;8.98;;
58338;SDS011;48278;52.704;6.536;2022-09-09T01:10:37;24.30;;;8.40;;
58338;SDS011;48278;52.704;6.536;2022-09-09T01:13:30;22.77;;;8.68;;
58338;SDS011;48278;52.704;6.536;2022-09-09T01:15:59;28.75;;;7.75;;
58338;SDS011;48278;52.704;6.536;2022-09-09T01:18:32;26.63;;;7.72;;
58338;SDS011;48278;52.704;6.536;2022-09-09T01:23:54;25.48;;;8.07;;
58338;SDS011;48278;52.704;6.536;2022-09-09T01:26:41;26.27;;;8.30;;
58338;SDS011;48278;52.704;6.536;2022-09-09T01:29:12;28.40;;;9.45;;
58338;SDS011;48278;52.704;6.536;2022-09-09T01:31:57;28.15;;;10.23;;
58338;SDS011;48278;52.704;6.536;2022-09-09T01:34:41;28.08;;;9.90;;
58338;SDS011;48278;52.704;6.536;2022-09-09T01:37:08;27.90;;;9.93;;
58338;SDS011;48278;52.704;6.536;2022-09-09T01:39:36;29.30;;;10.48;;
58338;SDS011;48278;52.704;6.536;2022-09-09T01:42:04;25.00;;;10.45;;
58338;SDS011;48278;52.704;6.536;2022-09-09T01:44:33;29.15;;;10.55;;
58338;SDS011;48278;52.704;6.536;2022-09-09T01:47:00;25.73;;;9.20;;
58338;SDS011;48278;52.704;6.536;2022-09-09T01:49:26;27.42;;;10.93;;
58338;SDS011;48278;52.704;6.536;2022-09-09T01:51:53;26.40;;;10.18;;
58338;SDS011;48278;52.704;6.536;2022-09-09T01:54:21;31.00;;;10.23;;
58338;SDS011;48278;52.704;6.536;2022-09-09T01:59:48;35.25;;;10.52;;
58338;SDS011;48278;52.704;6.536;2022-09-09T02:08:13;29.85;;;11.43;;
58338;SDS011;48278;52.704;6.536;2022-09-09T02:10:50;31.33;;;10.77;;
58338;SDS011;48278;52.704;6.536;2022-09-09T02:13:25;26.10;;;10.77;;
58338;SDS011;48278;52.704;6.536;2022-09-09T02:18:30;28.85;;;11.07;;
58338;SDS011;48278;52.704;6.536;2022-09-09T02:21:05;28.55;;;10.93;;
58338;SDS011;48278;52.704;6.536;2022-09-09T02:23:32;28.17;;;10.30;;
58338;SDS011;48278;52.704;6.536;2022-09-09T02:26:00;28.42;;;10.45;;
58338;SDS011;48278;52.704;6.536;2022-09-09T02:30:55;27.25;;;10.30;;
58338;SDS011;48278;52.704;6.536;2022-09-09T02:33:24;26.55;;;10.10;;
58338;SDS011;48278;52.704;6.536;2022-09-09T02:35:54;28.77;;;10.40;;
58338;SDS011;48278;52.704;6.536;2022-09-09T02:38:26;34.80;;;10.98;;
58338;SDS011;48278;52.704;6.536;2022-09-09T02:40:57;28.27;;;10.95;;
58338;SDS011;48278;52.704;6.536;2022-09-09T02:43:23;29.10;;;10.70;;
58338;SDS011;48278;52.704;6.536;2022-09-09T02:48:47;29.60;;;10.48;;
58338;SDS011;48278;52.704;6.536;2022-09-09T02:51:18;25.80;;;10.27;;
58338;SDS011;48278;52.704;6.536;2022-09-09T02:56:34;25.35;;;10.05;;
58338;SDS011;48278;52.704;6.536;2022-09-09T02:59:05;23.10;;;9.63;;
58338;SDS011;48278;52.704;6.536;2022-09-09T03:01:31;25.13;;;10.07;;
58338;SDS011;48278;52.704;6.536;2022-09-09T03:03:57;29.88;;;9.50;;
58338;SDS011;48278;52.704;6.536;2022-09-09T03:06:22;24.08;;;9.57;;
58338;SDS011;48278;52.704;6.536;2022-09-09T03:08:48;21.70;;;9.43;;
58338;SDS011;48278;52.704;6.536;2022-09-09T03:11:15;23.73;;;9.30;;
58338;SDS011;48278;52.704;6.536;2022-09-09T03:16:07;22.83;;;8.03;;
58338;SDS011;48278;52.704;6.536;2022-09-09T03:18:33;18.02;;;8.35;;
58338;SDS011;48278;52.704;6.536;2022-09-09T03:20:59;23.13;;;8.32;;
58338;SDS011;48278;52.704;6.536;2022-09-09T03:23:25;22.40;;;8.40;;
58338;SDS011;48278;52.704;6.536;2022-09-09T03:25:51;20.05;;;8.10;;
58338;SDS011;48278;52.704;6.536;2022-09-09T03:28:17;24.83;;;8.48;;
58338;SDS011;48278;52.704;6.536;2022-09-09T03:30:43;22.48;;;7.45;;
58338;SDS011;48278;52.704;6.536;2022-09-09T03:33:09;23.03;;;8.03;;
58338;SDS011;48278;52.704;6.536;2022-09-09T03:35:35;24.50;;;8.90;;
58338;SDS011;48278;52.704;6.536;2022-09-09T03:38:01;20.63;;;7.78;;
58338;SDS011;48278;52.704;6.536;2022-09-09T03:40:27;20.75;;;7.97;;
58338;SDS011;48278;52.704;6.536;2022-09-09T03:42:52;21.27;;;9.20;;
58338;SDS011;48278;52.704;6.536;2022-09-09T03:45:18;22.38;;;8.25;;
58338;SDS011;48278;52.704;6.536;2022-09-09T03:47:44;23.17;;;8.40;;
58338;SDS011;48278;52.704;6.536;2022-09-09T03:50:10;21.40;;;8.73;;
58338;SDS011;48278;52.704;6.536;2022-09-09T03:52:36;25.95;;;8.50;;
58338;SDS011;48278;52.704;6.536;2022-09-09T03:55:03;23.27;;;9.45;;
58338;SDS011;48278;52.704;6.536;2022-09-09T03:57:30;27.38;;;9.50;;
58338;SDS011;48278;52.704;6.536;2022-09-09T03:59:57;28.52;;;10.55;;
58338;SDS011;48278;52.704;6.536;2022-09-09T04:02:24;28.25;;;11.32;;
58338;SDS011;48278;52.704;6.536;2022-09-09T04:04:49;32.47;;;11.55;;
58338;SDS011;48278;52.704;6.536;2022-09-09T04:07:15;31.35;;;11.02;;
58338;SDS011;48278;52.704;6.536;2022-09-09T04:09:41;30.60;;;11.13;;
58338;SDS011;48278;52.704;6.536;2022-09-09T04:12:06;37.55;;;12.60;;
58338;SDS011;48278;52.704;6.536;2022-09-09T04:14:32;33.35;;;12.50;;
58338;SDS011;48278;52.704;6.536;2022-09-09T04:16:58;32.97;;;11.95;;
58338;SDS011;48278;52.704;6.536;2022-09-09T04:19:24;30.42;;;11.95;;
58338;SDS011;48278;52.704;6.536;2022-09-09T04:21:50;28.65;;;12.35;;
58338;SDS011;48278;52.704;6.536;2022-09-09T04:24:16;31.38;;;11.65;;
58338;SDS011;48278;52.704;6.536;2022-09-09T04:26:42;32.95;;;12.98;;
58338;SDS011;48278;52.704;6.536;2022-09-09T04:29:08;30.98;;;11.90;;
58338;SDS011;48278;52.704;6.536;2022-09-09T04:31:34;30.27;;;12.53;;
58338;SDS011;48278;52.704;6.536;2022-09-09T04:34:00;37.47;;;12.30;;
58338;SDS011;48278;52.704;6.536;2022-09-09T04:36:31;31.92;;;11.52;;
58338;SDS011;48278;52.704;6.536;2022-09-09T04:38:57;33.80;;;11.75;;
58338;SDS011;48278;52.704;6.536;2022-09-09T04:41:23;35.00;;;12.45;;
58338;SDS011;48278;52.704;6.536;2022-09-09T04:43:49;35.03;;;11.98;;
58338;SDS011;48278;52.704;6.536;2022-09-09T04:46:15;33.17;;;11.77;;
58338;SDS011;48278;52.704;6.536;2022-09-09T04:48:43;31.75;;;11.40;;
58338;SDS011;48278;52.704;6.536;2022-09-09T04:51:11;37.72;;;12.73;;
58338;SDS011;48278;52.704;6.536;2022-09-09T04:53:38;27.17;;;11.32;;
58338;SDS011;48278;52.704;6.536;2022-09-09T04:56:12;36.95;;;12.38;;
58338;SDS011;48278;52.704;6.536;2022-09-09T04:58:39;30.95;;;11.18;;
58338;SDS011;48278;52.704;6.536;2022-09-09T05:01:10;27.50;;;10.00;;
58338;SDS011;48278;52.704;6.536;2022-09-09T05:03:36;32.17;;;11.23;;
58338;SDS011;48278;52.704;6.536;2022-09-09T05:06:18;28.27;;;11.20;;
58338;SDS011;48278;52.704;6.536;2022-09-09T05:08:46;27.70;;;10.90;;
58338;SDS011;48278;52.704;6.536;2022-09-09T05:13:41;29.80;;;10.45;;
58338;SDS011;48278;52.704;6.536;2022-09-09T05:16:07;30.00;;;11.52;;
58338;SDS011;48278;52.704;6.536;2022-09-09T05:18:36;35.05;;;11.65;;
58338;SDS011;48278;52.704;6.536;2022-09-09T05:21:05;28.83;;;11.23;;
58338;SDS011;48278;52.704;6.536;2022-09-09T05:23:32;30.20;;;10.88;;
58338;SDS011;48278;52.704;6.536;2022-09-09T05:26:05;30.75;;;10.38;;
58338;SDS011;48278;52.704;6.536;2022-09-09T05:28:33;27.98;;;11.15;;
58338;SDS011;48278;52.704;6.536;2022-09-09T05:31:03;33.40;;;11.75;;
58338;SDS011;48278;52.704;6.536;2022-09-09T05:33:33;29.10;;;10.50;;
58338;SDS011;48278;52.704;6.536;2022-09-09T05:38:26;28.98;;;9.90;;
58338;SDS011;48278;52.704;6.536;2022-09-09T05:40:52;30.60;;;11.13;;
58338;SDS011;48278;52.704;6.536;2022-09-09T05:43:19;27.63;;;10.57;;
58338;SDS011;48278;52.704;6.536;2022-09-09T05:45:48;34.75;;;10.98;;
58338;SDS011;48278;52.704;6.536;2022-09-09T05:48:27;27.52;;;11.18;;
58338;SDS011;48278;52.704;6.536;2022-09-09T05:50:53;28.63;;;10.73;;
58338;SDS011;48278;52.704;6.536;2022-09-09T05:53:19;22.77;;;9.48;;
58338;SDS011;48278;52.704;6.536;2022-09-09T05:55:45;28.48;;;10.13;;
58338;SDS011;48278;52.704;6.536;2022-09-09T05:58:12;25.35;;;10.73;;
58338;SDS011;48278;52.704;6.536;2022-09-09T06:00:38;27.63;;;10.70;;
58338;SDS011;48278;52.704;6.536;2022-09-09T06:03:03;26.83;;;10.90;;
58338;SDS011;48278;52.704;6.536;2022-09-09T06:05:29;28.02;;;11.48;;
58338;SDS011;48278;52.704;6.536;2022-09-09T06:07:55;29.92;;;10.93;;
58338;SDS011;48278;52.704;6.536;2022-09-09T06:10:21;26.50;;;10.90;;
58338;SDS011;48278;52.704;6.536;2022-09-09T06:12:47;26.80;;;10.85;;
58338;SDS011;48278;52.704;6.536;2022-09-09T06:15:13;25.20;;;10.70;;
58338;SDS011;48278;52.704;6.536;2022-09-09T06:17:39;36.25;;;11.90;;
58338;SDS011;48278;52.704;6.536;2022-09-09T06:20:06;27.60;;;10.52;;
58338;SDS011;48278;52.704;6.536;2022-09-09T06:22:34;24.85;;;10.73;;
58338;SDS011;48278;52.704;6.536;2022-09-09T06:25:00;28.35;;;10.90;;
58338;SDS011;48278;52.704;6.536;2022-09-09T06:27:27;26.13;;;10.03;;
58338;SDS011;48278;52.704;6.536;2022-09-09T06:29:53;26.90;;;10.65;;
58338;SDS011;48278;52.704;6.536;2022-09-09T06:32:19;23.75;;;10.77;;
58338;SDS011;48278;52.704;6.536;2022-09-09T06:34:45;27.98;;;10.30;;
58338;SDS011;48278;52.704;6.536;2022-09-09T06:37:12;23.42;;;10.02;;
58338;SDS011;48278;52.704;6.536;2022-09-09T06:39:38;26.52;;;10.60;;
58338;SDS011;48278;52.704;6.536;2022-09-09T06:42:03;27.80;;;11.45;;
58338;SDS011;48278;52.704;6.536;2022-09-09T06:44:29;27.42;;;10.95;;
58338;SDS011;48278;52.704;6.536;2022-09-09T06:46:56;25.83;;;9.82;;
58338;SDS011;48278;52.704;6.536;2022-09-09T06:49:22;29.48;;;11.32;;
58338;SDS011;48278;52.704;6.536;2022-09-09T06:51:48;27.17;;;10.20;;
58338;SDS011;48278;52.704;6.536;2022-09-09T06:54:14;20.95;;;9.52;;
58338;SDS011;48278;52.704;6.536;2022-09-09T06:56:40;22.35;;;9.82;;
58338;SDS011;48278;52.704;6.536;2022-09-09T06:59:08;24.02;;;9.82;;
58338;SDS011;48278;52.704;6.536;2022-09-09T07:04:03;21.05;;;8.85;;
58338;SDS011;48278;52.704;6.536;2022-09-09T07:06:33;23.75;;;9.98;;
58338;SDS011;48278;52.704;6.536;2022-09-09T07:09:05;23.88;;;9.60;;
58338;SDS011;48278;52.704;6.536;2022-09-09T07:11:34;27.98;;;9.95;;
58338;SDS011;48278;52.704;6.536;2022-09-09T07:14:07;24.95;;;9.52;;
58338;SDS011;48278;52.704;6.536;2022-09-09T07:16:33;26.65;;;10.68;;
58338;SDS011;48278;52.704;6.536;2022-09-09T07:19:02;21.60;;;8.68;;
58338;SDS011;48278;52.704;6.536;2022-09-09T07:21:29;26.42;;;10.18;;
58338;SDS011;48278;52.704;6.536;2022-09-09T07:23:56;27.90;;;10.95;;
58338;SDS011;48278;52.704;6.536;2022-09-09T07:26:23;26.67;;;9.88;;
58338;SDS011;48278;52.704;6.536;2022-09-09T07:28:50;28.10;;;10.57;;
58338;SDS011;48278;52.704;6.536;2022-09-09T07:31:17;22.83;;;10.40;;
58338;SDS011;48278;52.704;6.536;2022-09-09T07:33:47;25.75;;;10.50;;
58338;SDS011;48278;52.704;6.536;2022-09-09T07:41:09;33.80;;;11.40;;
58338;SDS011;48278;52.704;6.536;2022-09-09T07:43:40;27.00;;;10.27;;
58338;SDS011;48278;52.704;6.536;2022-09-09T07:46:07;26.42;;;10.27;;
58338;SDS011;48278;52.704;6.536;2022-09-09T07:48:34;24.98;;;9.77;;
58338;SDS011;48278;52.704;6.536;2022-09-09T07:51:04;24.33;;;9.65;;
58338;SDS011;48278;52.704;6.536;2022-09-09T07:53:31;30.42;;;10.38;;
58338;SDS011;48278;52.704;6.536;2022-09-09T07:56:02;26.23;;;9.68;;
58338;SDS011;48278;52.704;6.536;2022-09-09T07:58:32;21.67;;;9.63;;
58338;SDS011;48278;52.704;6.536;2022-09-09T08:00:58;22.17;;;10.20;;
58338;SDS011;48278;52.704;6.536;2022-09-09T08:03:24;28.60;;;11.07;;
58338;SDS011;48278;52.704;6.536;2022-09-09T08:05:50;28.38;;;10.18;;
58338;SDS011;48278;52.704;6.536;2022-09-09T08:08:16;30.63;;;11.23;;
58338;SDS011;48278;52.704;6.536;2022-09-09T08:10:42;31.70;;;10.47;;
58338;SDS011;48278;52.704;6.536;2022-09-09T08:13:08;26.67;;;10.25;;
58338;SDS011;48278;52.704;6.536;2022-09-09T08:15:34;25.60;;;8.32;;
58338;SDS011;48278;52.704;6.536;2022-09-09T08:18:03;25.13;;;8.48;;
58338;SDS011;48278;52.704;6.536;2022-09-09T08:20:30;20.73;;;7.95;;
58338;SDS011;48278;52.704;6.536;2022-09-09T08:22:56;19.88;;;7.63;;
58338;SDS011;48278;52.704;6.536;2022-09-09T08:25:22;24.83;;;6.95;;
58338;SDS011;48278;52.704;6.536;2022-09-09T08:27:47;22.83;;;7.18;;
58338;SDS011;48278;52.704;6.536;2022-09-09T08:30:13;20.37;;;6.77;;
58338;SDS011;48278;52.704;6.536;2022-09-09T08:32:39;25.73;;;7.43;;
58338;SDS011;48278;52.704;6.536;2022-09-09T08:35:05;21.30;;;7.38;;
58338;SDS011;48278;52.704;6.536;2022-09-09T08:37:31;26.25;;;6.82;;
58338;SDS011;48278;52.704;6.536;2022-09-09T08:39:57;19.48;;;6.00;;
58338;SDS011;48278;52.704;6.536;2022-09-09T08:44:57;18.65;;;6.63;;
58338;SDS011;48278;52.704;6.536;2022-09-09T08:47:46;18.48;;;5.65;;
58338;SDS011;48278;52.704;6.536;2022-09-09T08:50:37;21.48;;;6.00;;
58338;SDS011;48278;52.704;6.536;2022-09-09T08:53:13;21.35;;;5.53;;
58338;SDS011;48278;52.704;6.536;2022-09-09T08:58:26;23.73;;;5.93;;
58338;SDS011;48278;52.704;6.536;2022-09-09T09:11:22;19.63;;;5.07;;
58338;SDS011;48278;52.704;6.536;2022-09-09T09:13:51;23.07;;;5.20;;
58338;SDS011;48278;52.704;6.536;2022-09-09T09:16:31;21.17;;;5.05;;
58338;SDS011;48278;52.704;6.536;2022-09-09T09:19:03;17.48;;;5.18;;
58338;SDS011;48278;52.704;6.536;2022-09-09T09:23:59;21.88;;;5.00;;
58338;SDS011;48278;52.704;6.536;2022-09-09T09:26:28;24.55;;;5.53;;
58338;SDS011;48278;52.704;6.536;2022-09-09T09:28:58;21.13;;;4.63;;
58338;SDS011;48278;52.704;6.536;2022-09-09T09:31:28;17.13;;;5.13;;
58338;SDS011;48278;52.704;6.536;2022-09-09T09:33:55;18.83;;;4.30;;
58338;SDS011;48278;52.704;6.536;2022-09-09T09:39:27;19.45;;;4.53;;
58338;SDS011;48278;52.704;6.536;2022-09-09T09:41:55;20.35;;;4.82;;
58338;SDS011;48278;52.704;6.536;2022-09-09T09:44:22;15.95;;;3.83;;
58338;SDS011;48278;52.704;6.536;2022-09-09T09:46:48;14.60;;;3.30;;
58338;SDS011;48278;52.704;6.536;2022-09-09T09:49:14;20.20;;;4.53;;
58338;SDS011;48278;52.704;6.536;2022-09-09T09:51:40;21.43;;;4.50;;
58338;SDS011;48278;52.704;6.536;2022-09-09T09:54:08;28.93;;;5.97;;
58338;SDS011;48278;52.704;6.536;2022-09-09T09:56:38;20.27;;;4.95;;
58338;SDS011;48278;52.704;6.536;2022-09-09T09:59:05;19.02;;;4.70;;
58338;SDS011;48278;52.704;6.536;2022-09-09T10:01:31;23.53;;;4.53;;
58338;SDS011;48278;52.704;6.536;2022-09-09T10:04:00;23.77;;;5.18;;
58338;SDS011;48278;52.704;6.536;2022-09-09T10:06:38;24.48;;;4.10;;
58338;SDS011;48278;52.704;6.536;2022-09-09T10:12:03;18.55;;;4.97;;
58338;SDS011;48278;52.704;6.536;2022-09-09T10:14:44;19.67;;;4.50;;
58338;SDS011;48278;52.704;6.536;2022-09-09T10:17:15;19.00;;;4.25;;
58338;SDS011;48278;52.704;6.536;2022-09-09T10:22:44;11.43;;;3.40;;
58338;SDS011;48278;52.704;6.536;2022-09-09T10:25:25;21.38;;;4.47;;
58338;SDS011;48278;52.704;6.536;2022-09-09T10:30:54;19.73;;;3.78;;
58338;SDS011;48278;52.704;6.536;2022-09-09T10:33:51;11.70;;;2.97;;
58338;SDS011;48278;52.704;6.536;2022-09-09T10:36:26;20.83;;;3.35;;
58338;SDS011;48278;52.704;6.536;2022-09-09T10:39:04;17.98;;;3.38;;
58338;SDS011;48278;52.704;6.536;2022-09-09T10:47:06;18.38;;;3.90;;
58338;SDS011;48278;52.704;6.536;2022-09-09T10:49:52;21.48;;;3.42;;
58338;SDS011;48278;52.704;6.536;2022-09-09T10:55:35;13.52;;;2.83;;
58338;SDS011;48278;52.704;6.536;2022-09-09T10:58:09;14.23;;;3.40;;
58338;SDS011;48278;52.704;6.536;2022-09-09T11:00:43;19.33;;;3.35;;
58338;SDS011;48278;52.704;6.536;2022-09-09T11:03:15;15.98;;;2.97;;
58338;SDS011;48278;52.704;6.536;2022-09-09T11:08:30;15.25;;;2.90;;
58338;SDS011;48278;52.704;6.536;2022-09-09T11:13:59;13.93;;;3.25;;
58338;SDS011;48278;52.704;6.536;2022-09-09T11:16:50;14.48;;;3.00;;
58338;SDS011;48278;52.704;6.536;2022-09-09T11:19:30;16.48;;;3.53;;
58338;SDS011;48278;52.704;6.536;2022-09-09T11:22:44;14.18;;;3.25;;
58338;SDS011;48278;52.704;6.536;2022-09-09T11:25:04;20.10;;;3.10;;
58338;SDS011;48278;52.704;6.536;2022-09-09T11:30:50;17.95;;;2.97;;
58338;SDS011;48278;52.704;6.536;2022-09-09T11:38:45;15.57;;;3.05;;
58338;SDS011;48278;52.704;6.536;2022-09-09T11:41:12;15.77;;;3.20;;
58338;SDS011;48278;52.704;6.536;2022-09-09T11:43:47;16.60;;;3.28;;
58338;SDS011;48278;52.704;6.536;2022-09-09T11:46:17;10.35;;;2.60;;
58338;SDS011;48278;52.704;6.536;2022-09-09T11:48:57;12.05;;;2.97;;
58338;SDS011;48278;52.704;6.536;2022-09-09T11:51:26;14.18;;;2.88;;
58338;SDS011;48278;52.704;6.536;2022-09-09T11:53:55;12.77;;;2.47;;
58338;SDS011;48278;52.704;6.536;2022-09-09T11:56:30;10.57;;;2.60;;
58338;SDS011;48278;52.704;6.536;2022-09-09T11:59:06;13.65;;;2.33;;
58338;SDS011;48278;52.704;6.536;2022-09-09T12:01:48;12.73;;;1.98;;
58338;SDS011;48278;52.704;6.536;2022-09-09T12:06:56;11.50;;;2.20;;
58338;SDS011;48278;52.704;6.536;2022-09-09T12:09:41;14.25;;;2.88;;
58338;SDS011;48278;52.704;6.536;2022-09-09T12:19:40;16.17;;;2.50;;
58338;SDS011;48278;52.704;6.536;2022-09-09T12:22:34;10.65;;;2.20;;
58338;SDS011;48278;52.704;6.536;2022-09-09T12:30:31;9.27;;;1.77;;
58338;SDS011;48278;52.704;6.536;2022-09-09T12:33:08;8.70;;;1.67;;
58338;SDS011;48278;52.704;6.536;2022-09-09T12:35:39;9.00;;;1.52;;
58338;SDS011;48278;52.704;6.536;2022-09-09T12:38:10;4.10;;;1.50;;
58338;SDS011;48278;52.704;6.536;2022-09-09T12:40:40;11.63;;;2.20;;
58338;SDS011;48278;52.704;6.536;2022-09-09T12:43:17;10.40;;;1.90;;
58338;SDS011;48278;52.704;6.536;2022-09-09T12:45:48;13.48;;;2.50;;
58338;SDS011;48278;52.704;6.536;2022-09-09T12:48:21;11.57;;;2.13;;
58338;SDS011;48278;52.704;6.536;2022-09-09T12:50:53;13.52;;;1.90;;
58338;SDS011;48278;52.704;6.536;2022-09-09T12:53:28;13.35;;;2.53;;
58338;SDS011;48278;52.704;6.536;2022-09-09T12:56:00;10.60;;;1.90;;
58338;SDS011;48278;52.704;6.536;2022-09-09T12:58:34;12.32;;;1.80;;
58338;SDS011;48278;52.704;6.536;2022-09-09T13:01:02;17.52;;;1.92;;
58338;SDS011;48278;52.704;6.536;2022-09-09T13:03:30;10.52;;;1.90;;
58338;SDS011;48278;52.704;6.536;2022-09-09T13:06:12;11.02;;;1.90;;
58338;SDS011;48278;52.704;6.536;2022-09-09T13:08:50;9.63;;;1.60;;
58338;SDS011;48278;52.704;6.536;2022-09-09T13:11:19;10.15;;;1.65;;
58338;SDS011;48278;52.704;6.536;2022-09-09T13:13:54;11.15;;;1.77;;
58338;SDS011;48278;52.704;6.536;2022-09-09T13:16:22;12.27;;;2.05;;
58338;SDS011;48278;52.704;6.536;2022-09-09T13:18:57;12.25;;;1.85;;
58338;SDS011;48278;52.704;6.536;2022-09-09T13:21:39;8.05;;;1.85;;
58338;SDS011;48278;52.704;6.536;2022-09-09T13:24:06;9.82;;;1.80;;
58338;SDS011;48278;52.704;6.536;2022-09-09T13:26:53;9.18;;;1.92;;
58338;SDS011;48278;52.704;6.536;2022-09-09T13:29:22;11.80;;;2.40;;
58338;SDS011;48278;52.704;6.536;2022-09-09T13:31:48;12.10;;;2.10;;
58338;SDS011;48278;52.704;6.536;2022-09-09T13:34:31;10.05;;;2.22;;
58338;SDS011;48278;52.704;6.536;2022-09-09T13:37:05;11.40;;;2.00;;
58338;SDS011;48278;52.704;6.536;2022-09-09T13:39:33;10.48;;;2.20;;
58338;SDS011;48278;52.704;6.536;2022-09-09T13:42:01;12.23;;;2.33;;
58338;SDS011;48278;52.704;6.536;2022-09-09T13:44:29;6.95;;;1.30;;
58338;SDS011;48278;52.704;6.536;2022-09-09T13:47:03;8.88;;;1.42;;
58338;SDS011;48278;52.704;6.536;2022-09-09T13:49:46;8.60;;;1.40;;
58338;SDS011;48278;52.704;6.536;2022-09-09T13:52:13;6.85;;;1.40;;
58338;SDS011;48278;52.704;6.536;2022-09-09T13:54:41;6.25;;;1.00;;
58338;SDS011;48278;52.704;6.536;2022-09-09T13:57:21;5.80;;;0.90;;
58338;SDS011;48278;52.704;6.536;2022-09-09T13:59:47;3.63;;;0.80;;
58338;SDS011;48278;52.704;6.536;2022-09-09T14:02:17;4.53;;;0.85;;
58338;SDS011;48278;52.704;6.536;2022-09-09T14:04:43;4.13;;;0.70;;
58338;SDS011;48278;52.704;6.536;2022-09-09T14:07:15;6.50;;;0.90;;
58338;SDS011;48278;52.704;6.536;2022-09-09T14:09:42;5.78;;;1.00;;
58338;SDS011;48278;52.704;6.536;2022-09-09T14:12:10;4.05;;;1.15;;
58338;SDS011;48278;52.704;6.536;2022-09-09T14:14:37;5.88;;;1.05;;
58338;SDS011;48278;52.704;6.536;2022-09-09T14:17:03;5.95;;;1.50;;
58338;SDS011;48278;52.704;6.536;2022-09-09T14:19:29;6.28;;;1.50;;
58338;SDS011;48278;52.704;6.536;2022-09-09T14:24:22;9.35;;;1.83;;
58338;SDS011;48278;52.704;6.536;2022-09-09T14:26:48;7.70;;;1.75;;
58338;SDS011;48278;52.704;6.536;2022-09-09T14:29:14;9.97;;;2.10;;
58338;SDS011;48278;52.704;6.536;2022-09-09T14:31:39;12.70;;;2.33;;
58338;SDS011;48278;52.704;6.536;2022-09-09T14:34:05;13.00;;;2.33;;
58338;SDS011;48278;52.704;6.536;2022-09-09T14:36:31;8.40;;;1.90;;
58338;SDS011;48278;52.704;6.536;2022-09-09T14:38:57;9.80;;;2.00;;
58338;SDS011;48278;52.704;6.536;2022-09-09T14:41:29;9.10;;;1.50;;
58338;SDS011;48278;52.704;6.536;2022-09-09T14:43:55;7.65;;;1.40;;
58338;SDS011;48278;52.704;6.536;2022-09-09T14:46:27;6.47;;;1.30;;
58338;SDS011;48278;52.704;6.536;2022-09-09T14:48:59;11.23;;;2.22;;
58338;SDS011;48278;52.704;6.536;2022-09-09T14:51:30;7.03;;;1.50;;
58338;SDS011;48278;52.704;6.536;2022-09-09T14:53:57;7.50;;;1.90;;
58338;SDS011;48278;52.704;6.536;2022-09-09T14:56:24;8.82;;;1.80;;
58338;SDS011;48278;52.704;6.536;2022-09-09T14:58:53;5.25;;;1.40;;
58338;SDS011;48278;52.704;6.536;2022-09-09T15:01:20;8.75;;;1.73;;
58338;SDS011;48278;52.704;6.536;2022-09-09T15:03:53;6.47;;;1.60;;
58338;SDS011;48278;52.704;6.536;2022-09-09T15:06:23;8.00;;;1.52;;
58338;SDS011;48278;52.704;6.536;2022-09-09T15:08:52;7.18;;;1.70;;
58338;SDS011;48278;52.704;6.536;2022-09-09T15:11:19;10.63;;;1.83;;
58338;SDS011;48278;52.704;6.536;2022-09-09T15:13:47;11.38;;;2.08;;
58338;SDS011;48278;52.704;6.536;2022-09-09T15:16:18;6.85;;;1.80;;
58338;SDS011;48278;52.704;6.536;2022-09-09T15:26:03;12.60;;;2.63;;
58338;SDS011;48278;52.704;6.536;2022-09-09T15:28:30;10.68;;;1.95;;
58338;SDS011;48278;52.704;6.536;2022-09-09T15:31:09;11.55;;;2.08;;
58338;SDS011;48278;52.704;6.536;2022-09-09T15:34:03;8.02;;;1.60;;
58338;SDS011;48278;52.704;6.536;2022-09-09T15:36:31;8.27;;;2.45;;
58338;SDS011;48278;52.704;6.536;2022-09-09T15:39:01;11.07;;;2.40;;
58338;SDS011;48278;52.704;6.536;2022-09-09T15:41:29;10.57;;;2.88;;
58338;SDS011;48278;52.704;6.536;2022-09-09T15:43:56;8.93;;;2.72;;
58338;SDS011;48278;52.704;6.536;2022-09-09T15:46:25;11.63;;;2.55;;
58338;SDS011;48278;52.704;6.536;2022-09-09T15:48:54;13.10;;;2.58;;
58338;SDS011;48278;52.704;6.536;2022-09-09T15:51:22;9.10;;;2.40;;
58338;SDS011;48278;52.704;6.536;2022-09-09T15:53:53;10.20;;;2.78;;
58338;SDS011;48278;52.704;6.536;2022-09-09T15:56:23;7.47;;;2.00;;
58338;SDS011;48278;52.704;6.536;2022-09-09T15:58:50;8.80;;;2.05;;
58338;SDS011;48278;52.704;6.536;2022-09-09T16:01:17;11.35;;;2.60;;
58338;SDS011;48278;52.704;6.536;2022-09-09T16:03:44;9.82;;;2.65;;
58338;SDS011;48278;52.704;6.536;2022-09-09T16:06:15;12.02;;;2.72;;
58338;SDS011;48278;52.704;6.536;2022-09-09T16:08:48;16.35;;;3.33;;
58338;SDS011;48278;52.704;6.536;2022-09-09T16:11:19;11.63;;;3.17;;
58338;SDS011;48278;52.704;6.536;2022-09-09T16:13:50;12.23;;;3.22;;
58338;SDS011;48278;52.704;6.536;2022-09-09T16:16:18;11.93;;;3.20;;
58338;SDS011;48278;52.704;6.536;2022-09-09T16:18:48;13.13;;;4.30;;
58338;SDS011;48278;52.704;6.536;2022-09-09T16:21:20;14.45;;;4.43;;
58338;SDS011;48278;52.704;6.536;2022-09-09T16:23:49;16.30;;;3.83;;
58338;SDS011;48278;52.704;6.536;2022-09-09T16:26:18;12.60;;;4.32;;
58338;SDS011;48278;52.704;6.536;2022-09-09T16:28:44;12.20;;;5.15;;
58338;SDS011;48278;52.704;6.536;2022-09-09T16:31:13;15.52;;;5.07;;
58338;SDS011;48278;52.704;6.536;2022-09-09T16:33:42;15.00;;;5.40;;
58338;SDS011;48278;52.704;6.536;2022-09-09T16:36:09;13.55;;;4.65;;
58338;SDS011;48278;52.704;6.536;2022-09-09T16:38:39;15.60;;;5.20;;
58338;SDS011;48278;52.704;6.536;2022-09-09T16:41:06;16.40;;;4.57;;
58338;SDS011;48278;52.704;6.536;2022-09-09T16:43:34;13.70;;;4.82;;
58338;SDS011;48278;52.704;6.536;2022-09-09T16:46:03;10.55;;;4.75;;
58338;SDS011;48278;52.704;6.536;2022-09-09T16:48:40;16.00;;;5.03;;
58338;SDS011;48278;52.704;6.536;2022-09-09T16:51:07;15.40;;;4.13;;
58338;SDS011;48278;52.704;6.536;2022-09-09T16:53:36;11.50;;;3.85;;
58338;SDS011;48278;52.704;6.536;2022-09-09T16:56:13;12.07;;;2.80;;
58338;SDS011;48278;52.704;6.536;2022-09-09T16:58:40;16.60;;;4.22;;
58338;SDS011;48278;52.704;6.536;2022-09-09T17:01:08;10.50;;;3.08;;
58338;SDS011;48278;52.704;6.536;2022-09-09T17:03:36;9.57;;;2.53;;
58338;SDS011;48278;52.704;6.536;2022-09-09T17:06:08;7.43;;;2.75;;
58338;SDS011;48278;52.704;6.536;2022-09-09T17:08:35;11.43;;;2.92;;